Rechercher aéroport 
image banner adimage banner adimage banner ad
image banner ad

2O1 - Gansner Field

Situé à Quincy, United States

ICAO - 2O1, IATA -

Données fournies par Airmate  

Information générale

Coordonnées: N39°56'38" W120°56'43"
Élévation : 3419 feet MSL.
Variation magnétique : 17° East
Voir autres Aéroports à California

Données opérationnelles

Special qualification required
Heure actuelle UTC:
Heure actuelle locale:
Météo à : KSVE - Susanville Muni ( 57 km )
METAR: KSVE 251635Z AUTO 31003KT 2 1/2SM HZ CLR 27/04 A3011 RMK AO2
Voir NOTAMs / SUP AIP / TFR affectant cet aéroport [VIEW]
Fréquences de communication: [VIEW]

Pistes:

Identifiant RWYQFULongueur (ft)Largeur (ft)SurfaceLDA (ft)
0782°410560ASPH
25262°410560ASPH

Coordonnées de l'aéroport

Adresse: Quincy United States

Vue satellite de 2O1